Bleecker, New York
Current Conditions -  °F | °C
As of 5:15 PM on Saturday 20 Dec 2014 (Local Time) from KNY0 Reporting Station
Overcast Overcast  
Wind Chill: -5°   Ceiling: 2100
Heat Index: -5°   Visibility: 10mi
Dew Point: -9°   Wind: 0mph
Humidity: 73%   Direction: NA
Pressure: 30.25"   Gusts: NA
Location:  43.1204°N, 74.3629°W
Report Text: KNY0 202215Z AUTO 00000KT 10SM OVC021 M05/M09 A3025 RMK AO2 T10501091
Loading
Personal Weather Stations






























Interactive Weather Map New forecast layout! Learn more

10-Day Weather Forecast

Advertisements
Track Severe Weather on mobile